ADDS METAR Data INFO
IDs: Format: Raw Decoded Include TAF

Data at: 0232 UTC 21 Nov 2017

Region: TOP
KATL 210152Z 09005KT 10SM SCT200 BKN250 08/02 A3018 RMK AO2 SLP224 T00830017

KBOS 210154Z 23013G21KT 10SM SCT045 04/M04 A3003 RMK AO2 SLP167 T00441039

KBWI 210154Z 23004KT 10SM FEW250 04/M04 A3017 RMK AO2 SLP217 T00391044

KCLE 210151Z 19014G22KT 10SM SCT250 05/M04 A2997 RMK AO2 PK WND 19028/0057 SLP157 T00501044

KCLT 210152Z 19005KT 10SM SCT250 07/M02 A3023 RMK AO2 SLP239 T00671022

KCVG 210152Z 18009KT 10SM FEW250 04/M03 A3002 RMK AO2 SLP169 T00391028

KDCA 210152Z 19006KT 10SM CLR 06/M03 A3019 RMK AO2 SLP224 T00611028

KDEN 210153Z 16011KT 10SM SCT160 BKN200 08/M09 A2983 RMK AO2 SLP078 T00831089

KDFW 210153Z 16009KT 10SM FEW250 13/01 A2994 RMK AO2 SLP136 T01330006

KDTW 210153Z 20016KT 10SM FEW250 05/M02 A2986 RMK AO2 SLP116 T00501022

KEWR 210151Z 24008KT 10SM SCT250 06/M05 A3012 RMK AO2 SLP197 T00561050 $

KFLL 210153Z 07012KT 10SM FEW030 FEW038 OVC049 24/19 A3003 RMK AO2 SLP170 T02440194

KIAD 210152Z 19005KT 10SM CLR 04/M05 A3017 RMK AO2 SLP220 T00441050

KIAH 210153Z 14007KT 10SM FEW120 FEW180 SCT250 13/09 A3006 RMK AO2 SLP179 T01330089

KJFK 210151Z 25017KT 10SM FEW250 07/M03 A3013 RMK AO2 SLP202 T00721028

KLAS 210156Z 00000KT 10SM FEW200 BKN250 16/M10 A3009 RMK AO2 SLP184 T01561100

KLAX 210153Z 00000KT 10SM FEW200 FEW250 19/05 A3000 RMK AO2 SLP158 T01890050

KLGA 210151Z 25012G21KT 10SM SCT250 08/M05 A3011 RMK AO2 PK WND 24026/0108 SLP195 T00781050

KMCO 210153Z 08006KT 10SM SCT050 18/14 A3012 RMK AO2 SLP198 T01830144

KMDW 210153Z 21018G31KT 10SM BKN250 08/M01 A2976 RMK AO2 PK WND 20031/0145 SLP084 T00831006

KMEM 210154Z 18006KT 10SM CLR 07/M02 A3007 RMK AO2 SLP182 T00671022

KMIA 210202Z 05006KT 10SM SCT025 BKN034 BKN100 24/21 A3004 RMK AO2 RAE0155 P0000 T02390206

KMSP 210153Z 26009KT 10SM FEW220 SCT250 07/M02 A2947 RMK AO2 SLP988 T00671017

KORD 210151Z 21020G28KT 10SM BKN250 09/M01 A2974 RMK AO2 PK WND 20031/0127 SLP074 T00891011

KPDX 210153Z 00000KT 10SM FEW024 FEW038 SCT100 BKN230 09/09 A2997 RMK AO2 SLP148 T00890089

KPHL 210154Z 19007KT 10SM CLR 05/M03 A3016 RMK AO2 SLP213 T00501028 $

KPHX 210151Z 24005KT 10SM SCT200 OVC250 21/M01 A2998 RMK AO2 SLP144 T02061006

KPIT 210151Z 20005KT 10SM SCT250 03/M06 A3004 RMK AO2 SLP193 T00331061

KSAN 210151Z 31003KT 10SM FEW030 FEW120 SCT200 18/12 A3001 RMK AO2 SLP161 T01780122 $

KSEA 210153Z 00000KT 10SM SCT055 08/02 A2998 RMK AO2 SLP160 T00780022

KSFO 210156Z 00000KT 10SM BKN031 17/11 A3008 RMK AO2 SLP187 T01670106

KSLC 210154Z 35007KT 10SM FEW040 BKN060 OVC100 07/02 A3013 RMK AO2 SLP199 T00720022 VISNO NW RNWY

KSTL 210151Z 18010KT 10SM BKN250 10/M02 A2988 RMK AO2 SLP123 T01001022

KTPA 210153Z 07007KT 10SM FEW250 21/13 A3009 RMK AO2 SLP189 T02110133